KHFF/HFF METAR and TAF weather

Enter ICAO airport designator
Station Type Date Time Source
KHFF METAR 2020/07/09 23:56 UTC NOAA

KHFF 092356Z AUTO 00000KT 10SM SHRA OVC044 24/24 A2987 RMK AO2 LTG DSNT SW RAB2257E2257SHRAB2257 SLP127 P0001 T02420238 10320 20242 53008 $


Station Type Date Time Source
KHFF Decoded METAR 2020/07/09 23:56 UTC NOAA

Mackall U. S. Army Airfield, NC, United States (KHFF) 35-02N 079-30W
Jul 09, 2020 - 07:56 PM EDT / 2020.07.09 2356 UTC
Wind: Calm:0
Visibility: 10 mile(s):0
Sky conditions: overcast
Weather: rain showers; Lightning observed
Precipitation last hour: 0.01 inches
Temperature: 75.6 F (24.2 C)
Dew Point: 74.8 F (23.8 C)
Relative Humidity: 97%
Pressure (altimeter): 29.87 in. Hg (1011 hPa)
Pressure tendency: 0.02 inches (0.8 hPa) higher than three hours ago
ob: KHFF 092356Z AUTO 00000KT 10SM SHRA OVC044 24/24 A2987 RMK AO2 LTG DSNT SW RAB2257E2257SHRAB2257 SLP127 P0001 T02420238 10320 20242 53008
cycle: 0

Station Type Date Time Source
KHFF TAF UTC NOAA

Error!

Example: see airport list